sensor_id;sensor_type;location;lat;lon;timestamp;temperature;humidity
32173;DHT22;18679;45.190;5.722;2023-08-30T00:01:05;19.70;49.60
32173;DHT22;18679;45.190;5.722;2023-08-30T00:04:05;19.70;49.90
32173;DHT22;18679;45.190;5.722;2023-08-30T00:07:06;19.70;50.30
32173;DHT22;18679;45.190;5.722;2023-08-30T00:10:07;19.70;50.30
32173;DHT22;18679;45.190;5.722;2023-08-30T00:13:11;19.70;50.40
32173;DHT22;18679;45.190;5.722;2023-08-30T00:16:11;19.70;50.40
32173;DHT22;18679;45.190;5.722;2023-08-30T00:19:13;19.80;50.30
32173;DHT22;18679;45.190;5.722;2023-08-30T00:22:14;19.80;50.20
32173;DHT22;18679;45.190;5.722;2023-08-30T00:25:15;19.90;50.00
32173;DHT22;18679;45.190;5.722;2023-08-30T00:28:16;19.90;49.80
32173;DHT22;18679;45.190;5.722;2023-08-30T00:31:17;20.00;49.80
32173;DHT22;18679;45.190;5.722;2023-08-30T00:34:18;20.00;49.70
32173;DHT22;18679;45.190;5.722;2023-08-30T00:37:19;20.00;49.60
32173;DHT22;18679;45.190;5.722;2023-08-30T00:40:23;20.00;49.40
32173;DHT22;18679;45.190;5.722;2023-08-30T00:43:25;20.10;49.30
32173;DHT22;18679;45.190;5.722;2023-08-30T00:46:26;20.10;49.10
32173;DHT22;18679;45.190;5.722;2023-08-30T00:49:31;20.10;48.90
32173;DHT22;18679;45.190;5.722;2023-08-30T00:52:32;20.20;48.80
32173;DHT22;18679;45.190;5.722;2023-08-30T00:55:37;20.10;48.80
32173;DHT22;18679;45.190;5.722;2023-08-30T00:58:38;20.10;49.10
32173;DHT22;18679;45.190;5.722;2023-08-30T01:01:40;20.00;49.50
32173;DHT22;18679;45.190;5.722;2023-08-30T01:04:42;19.90;50.10
32173;DHT22;18679;45.190;5.722;2023-08-30T01:07:42;19.80;50.30
32173;DHT22;18679;45.190;5.722;2023-08-30T01:11:06;19.70;50.70
32173;DHT22;18679;45.190;5.722;2023-08-30T01:14:13;19.60;50.90
32173;DHT22;18679;45.190;5.722;2023-08-30T01:17:17;19.50;51.00
32173;DHT22;18679;45.190;5.722;2023-08-30T01:20:20;19.50;51.10
32173;DHT22;18679;45.190;5.722;2023-08-30T01:29:59;19.30;51.60
32173;DHT22;18679;45.190;5.722;2023-08-30T01:33:01;19.30;51.90
32173;DHT22;18679;45.190;5.722;2023-08-30T01:36:04;19.30;52.00
32173;DHT22;18679;45.190;5.722;2023-08-30T01:39:08;19.20;52.10
32173;DHT22;18679;45.190;5.722;2023-08-30T01:42:11;19.20;52.20
32173;DHT22;18679;45.190;5.722;2023-08-30T01:45:13;19.20;52.30
32173;DHT22;18679;45.190;5.722;2023-08-30T01:48:16;19.10;52.30
32173;DHT22;18679;45.190;5.722;2023-08-30T01:51:17;19.10;52.20
32173;DHT22;18679;45.190;5.722;2023-08-30T01:54:19;19.20;52.90
32173;DHT22;18679;45.190;5.722;2023-08-30T01:57:21;19.10;52.20
32173;DHT22;18679;45.190;5.722;2023-08-30T02:00:22;19.10;52.90
32173;DHT22;18679;45.190;5.722;2023-08-30T02:03:23;19.10;52.40
32173;DHT22;18679;45.190;5.722;2023-08-30T02:06:35;19.10;52.50
32173;DHT22;18679;45.190;5.722;2023-08-30T02:09:55;19.00;52.50
32173;DHT22;18679;45.190;5.722;2023-08-30T02:12:59;19.00;52.50
32173;DHT22;18679;45.190;5.722;2023-08-30T02:16:01;19.00;52.50
32173;DHT22;18679;45.190;5.722;2023-08-30T02:19:02;19.00;52.50
32173;DHT22;18679;45.190;5.722;2023-08-30T02:22:03;18.90;52.40
32173;DHT22;18679;45.190;5.722;2023-08-30T02:25:04;18.90;52.40
32173;DHT22;18679;45.190;5.722;2023-08-30T02:28:05;18.80;52.50
32173;DHT22;18679;45.190;5.722;2023-08-30T02:31:07;18.80;52.70
32173;DHT22;18679;45.190;5.722;2023-08-30T02:34:08;18.80;52.80
32173;DHT22;18679;45.190;5.722;2023-08-30T02:37:11;18.80;52.80
32173;DHT22;18679;45.190;5.722;2023-08-30T02:40:12;18.80;52.90
32173;DHT22;18679;45.190;5.722;2023-08-30T02:43:12;18.80;52.90
32173;DHT22;18679;45.190;5.722;2023-08-30T02:46:13;18.70;53.00
32173;DHT22;18679;45.190;5.722;2023-08-30T02:49:14;18.80;53.10
32173;DHT22;18679;45.190;5.722;2023-08-30T02:52:16;18.70;53.00
32173;DHT22;18679;45.190;5.722;2023-08-30T02:55:17;18.80;53.10
32173;DHT22;18679;45.190;5.722;2023-08-30T02:58:18;18.70;53.30
32173;DHT22;18679;45.190;5.722;2023-08-30T03:01:19;18.70;53.40
32173;DHT22;18679;45.190;5.722;2023-08-30T03:04:22;18.70;53.40
32173;DHT22;18679;45.190;5.722;2023-08-30T03:07:23;18.70;53.50
32173;DHT22;18679;45.190;5.722;2023-08-30T03:10:24;18.60;53.50
32173;DHT22;18679;45.190;5.722;2023-08-30T03:13:25;18.60;53.70
32173;DHT22;18679;45.190;5.722;2023-08-30T03:16:26;18.50;53.70
32173;DHT22;18679;45.190;5.722;2023-08-30T03:19:27;18.50;53.80
32173;DHT22;18679;45.190;5.722;2023-08-30T03:22:29;18.50;53.70
32173;DHT22;18679;45.190;5.722;2023-08-30T03:25:29;18.50;53.80
32173;DHT22;18679;45.190;5.722;2023-08-30T03:28:31;18.50;53.90
32173;DHT22;18679;45.190;5.722;2023-08-30T03:31:32;18.50;53.90
32173;DHT22;18679;45.190;5.722;2023-08-30T03:34:33;18.50;54.00
32173;DHT22;18679;45.190;5.722;2023-08-30T03:37:34;18.50;54.00
32173;DHT22;18679;45.190;5.722;2023-08-30T03:40:36;18.50;54.00
32173;DHT22;18679;45.190;5.722;2023-08-30T03:43:37;18.40;54.00
32173;DHT22;18679;45.190;5.722;2023-08-30T03:46:38;18.40;54.10
32173;DHT22;18679;45.190;5.722;2023-08-30T03:49:39;18.40;54.10
32173;DHT22;18679;45.190;5.722;2023-08-30T03:52:41;18.40;54.20
32173;DHT22;18679;45.190;5.722;2023-08-30T03:55:42;18.30;54.20
32173;DHT22;18679;45.190;5.722;2023-08-30T03:58:44;18.30;54.30
32173;DHT22;18679;45.190;5.722;2023-08-30T04:01:45;18.40;54.40
32173;DHT22;18679;45.190;5.722;2023-08-30T04:04:47;18.40;54.40
32173;DHT22;18679;45.190;5.722;2023-08-30T04:07:51;18.30;54.40
32173;DHT22;18679;45.190;5.722;2023-08-30T04:10:53;18.30;54.50
32173;DHT22;18679;45.190;5.722;2023-08-30T04:13:54;18.30;54.60
32173;DHT22;18679;45.190;5.722;2023-08-30T04:16:55;18.30;54.70
32173;DHT22;18679;45.190;5.722;2023-08-30T04:19:56;18.30;54.80
32173;DHT22;18679;45.190;5.722;2023-08-30T04:22:57;18.30;54.90
32173;DHT22;18679;45.190;5.722;2023-08-30T04:25:58;18.20;54.90
32173;DHT22;18679;45.190;5.722;2023-08-30T04:28:59;18.20;55.00
32173;DHT22;18679;45.190;5.722;2023-08-30T04:32:00;18.10;55.20
32173;DHT22;18679;45.190;5.722;2023-08-30T04:35:01;18.10;55.40
32173;DHT22;18679;45.190;5.722;2023-08-30T04:38:03;18.00;55.50
32173;DHT22;18679;45.190;5.722;2023-08-30T04:41:04;18.00;55.70
32173;DHT22;18679;45.190;5.722;2023-08-30T04:44:08;18.00;55.80
32173;DHT22;18679;45.190;5.722;2023-08-30T04:47:09;18.00;55.80
32173;DHT22;18679;45.190;5.722;2023-08-30T04:50:11;18.00;55.80
32173;DHT22;18679;45.190;5.722;2023-08-30T04:53:12;18.00;55.80
32173;DHT22;18679;45.190;5.722;2023-08-30T04:56:14;18.00;55.90
32173;DHT22;18679;45.190;5.722;2023-08-30T04:59:18;17.90;55.80
32173;DHT22;18679;45.190;5.722;2023-08-30T05:02:21;17.90;55.80
32173;DHT22;18679;45.190;5.722;2023-08-30T05:05:34;17.90;55.80
32173;DHT22;18679;45.190;5.722;2023-08-30T05:08:35;17.90;55.90
32173;DHT22;18679;45.190;5.722;2023-08-30T05:11:36;17.90;56.00
32173;DHT22;18679;45.190;5.722;2023-08-30T05:14:37;17.80;56.10
32173;DHT22;18679;45.190;5.722;2023-08-30T05:17:38;17.80;56.30
32173;DHT22;18679;45.190;5.722;2023-08-30T05:20:39;17.70;56.40
32173;DHT22;18679;45.190;5.722;2023-08-30T05:23:40;17.70;56.40
32173;DHT22;18679;45.190;5.722;2023-08-30T05:26:44;17.70;56.50
32173;DHT22;18679;45.190;5.722;2023-08-30T05:29:48;17.70;56.60
32173;DHT22;18679;45.190;5.722;2023-08-30T05:32:49;17.70;56.60
32173;DHT22;18679;45.190;5.722;2023-08-30T05:35:59;17.70;56.60
32173;DHT22;18679;45.190;5.722;2023-08-30T05:39:06;17.80;56.60
32173;DHT22;18679;45.190;5.722;2023-08-30T05:42:09;17.80;56.60
32173;DHT22;18679;45.190;5.722;2023-08-30T05:45:10;17.90;56.60
32173;DHT22;18679;45.190;5.722;2023-08-30T05:48:11;17.90;56.60
32173;DHT22;18679;45.190;5.722;2023-08-30T05:51:11;18.00;56.60
32173;DHT22;18679;45.190;5.722;2023-08-30T05:54:12;18.00;56.70
32173;DHT22;18679;45.190;5.722;2023-08-30T05:57:13;18.00;56.60
32173;DHT22;18679;45.190;5.722;2023-08-30T06:00:14;18.10;56.50
32173;DHT22;18679;45.190;5.722;2023-08-30T06:03:15;18.10;56.40
32173;DHT22;18679;45.190;5.722;2023-08-30T06:06:16;18.10;56.40
32173;DHT22;18679;45.190;5.722;2023-08-30T06:09:17;18.10;56.30
32173;DHT22;18679;45.190;5.722;2023-08-30T06:12:18;18.10;56.30
32173;DHT22;18679;45.190;5.722;2023-08-30T06:15:19;18.00;56.20
32173;DHT22;18679;45.190;5.722;2023-08-30T06:18:20;18.00;56.30
32173;DHT22;18679;45.190;5.722;2023-08-30T06:21:20;18.00;56.30
32173;DHT22;18679;45.190;5.722;2023-08-30T06:24:22;18.00;56.30
32173;DHT22;18679;45.190;5.722;2023-08-30T06:27:23;18.00;56.30
32173;DHT22;18679;45.190;5.722;2023-08-30T06:30:28;17.90;56.40
32173;DHT22;18679;45.190;5.722;2023-08-30T06:33:30;17.90;56.60
32173;DHT22;18679;45.190;5.722;2023-08-30T06:36:31;17.90;56.60
32173;DHT22;18679;45.190;5.722;2023-08-30T06:39:35;17.90;56.60
32173;DHT22;18679;45.190;5.722;2023-08-30T06:42:36;18.10;56.70
32173;DHT22;18679;45.190;5.722;2023-08-30T06:45:39;18.00;56.60
32173;DHT22;18679;45.190;5.722;2023-08-30T06:48:40;18.10;56.60
32173;DHT22;18679;45.190;5.722;2023-08-30T06:51:40;18.10;56.50
32173;DHT22;18679;45.190;5.722;2023-08-30T06:54:41;18.20;56.30
32173;DHT22;18679;45.190;5.722;2023-08-30T06:57:48;18.30;56.20
32173;DHT22;18679;45.190;5.722;2023-08-30T07:00:50;18.30;56.10
32173;DHT22;18679;45.190;5.722;2023-08-30T07:03:51;18.40;56.00
32173;DHT22;18679;45.190;5.722;2023-08-30T07:06:51;18.40;55.90
32173;DHT22;18679;45.190;5.722;2023-08-30T07:09:52;18.50;56.00
32173;DHT22;18679;45.190;5.722;2023-08-30T07:12:53;18.50;55.80
32173;DHT22;18679;45.190;5.722;2023-08-30T07:15:54;18.60;55.80
32173;DHT22;18679;45.190;5.722;2023-08-30T07:18:55;18.70;55.70
32173;DHT22;18679;45.190;5.722;2023-08-30T07:21:55;18.80;55.50
32173;DHT22;18679;45.190;5.722;2023-08-30T07:24:56;18.90;55.50
32173;DHT22;18679;45.190;5.722;2023-08-30T07:27:57;19.00;55.30
32173;DHT22;18679;45.190;5.722;2023-08-30T07:31:04;19.10;55.10
32173;DHT22;18679;45.190;5.722;2023-08-30T07:34:05;19.30;54.80
32173;DHT22;18679;45.190;5.722;2023-08-30T07:37:17;19.40;54.70
32173;DHT22;18679;45.190;5.722;2023-08-30T07:40:19;19.50;54.40
32173;DHT22;18679;45.190;5.722;2023-08-30T07:43:21;19.50;54.20
32173;DHT22;18679;45.190;5.722;2023-08-30T07:46:22;19.60;54.10
32173;DHT22;18679;45.190;5.722;2023-08-30T07:49:23;19.70;53.90
32173;DHT22;18679;45.190;5.722;2023-08-30T07:52:24;19.70;53.70
32173;DHT22;18679;45.190;5.722;2023-08-30T07:55:25;19.90;53.60
32173;DHT22;18679;45.190;5.722;2023-08-30T07:58:26;20.00;53.40
32173;DHT22;18679;45.190;5.722;2023-08-30T08:01:27;20.10;53.30
32173;DHT22;18679;45.190;5.722;2023-08-30T08:04:27;20.20;53.10
32173;DHT22;18679;45.190;5.722;2023-08-30T08:07:28;20.30;52.90
32173;DHT22;18679;45.190;5.722;2023-08-30T08:10:32;20.30;52.70
32173;DHT22;18679;45.190;5.722;2023-08-30T08:13:34;20.40;52.50
32173;DHT22;18679;45.190;5.722;2023-08-30T08:16:36;20.50;52.30
32173;DHT22;18679;45.190;5.722;2023-08-30T08:19:37;20.50;52.10
32173;DHT22;18679;45.190;5.722;2023-08-30T08:22:40;20.60;52.00
32173;DHT22;18679;45.190;5.722;2023-08-30T08:25:41;20.70;51.70
32173;DHT22;18679;45.190;5.722;2023-08-30T08:28:41;20.80;51.70
32173;DHT22;18679;45.190;5.722;2023-08-30T08:31:42;20.90;51.60
32173;DHT22;18679;45.190;5.722;2023-08-30T08:34:43;20.90;51.40
32173;DHT22;18679;45.190;5.722;2023-08-30T08:37:44;21.00;51.30
32173;DHT22;18679;45.190;5.722;2023-08-30T08:40:45;21.00;51.30
32173;DHT22;18679;45.190;5.722;2023-08-30T08:43:46;21.10;51.10
32173;DHT22;18679;45.190;5.722;2023-08-30T08:46:47;21.10;51.00
32173;DHT22;18679;45.190;5.722;2023-08-30T08:49:49;21.10;51.00
32173;DHT22;18679;45.190;5.722;2023-08-30T08:52:51;21.20;50.90
32173;DHT22;18679;45.190;5.722;2023-08-30T08:55:54;21.30;50.80
32173;DHT22;18679;45.190;5.722;2023-08-30T08:58:57;21.40;50.60
32173;DHT22;18679;45.190;5.722;2023-08-30T09:01:59;21.50;50.20
32173;DHT22;18679;45.190;5.722;2023-08-30T09:05:00;21.50;50.10
32173;DHT22;18679;45.190;5.722;2023-08-30T09:08:02;21.50;50.20
32173;DHT22;18679;45.190;5.722;2023-08-30T09:11:04;21.60;50.00
32173;DHT22;18679;45.190;5.722;2023-08-30T09:14:05;21.70;49.90
32173;DHT22;18679;45.190;5.722;2023-08-30T09:17:06;21.90;49.70
32173;DHT22;18679;45.190;5.722;2023-08-30T09:20:08;22.10;49.50
32173;DHT22;18679;45.190;5.722;2023-08-30T09:23:17;22.30;49.10
32173;DHT22;18679;45.190;5.722;2023-08-30T09:26:18;22.30;48.50
32173;DHT22;18679;45.190;5.722;2023-08-30T09:29:21;22.40;48.40
32173;DHT22;18679;45.190;5.722;2023-08-30T09:32:22;22.50;48.40
32173;DHT22;18679;45.190;5.722;2023-08-30T09:35:23;22.70;48.20
32173;DHT22;18679;45.190;5.722;2023-08-30T09:38:25;22.80;47.90
32173;DHT22;18679;45.190;5.722;2023-08-30T09:41:26;22.90;47.40
32173;DHT22;18679;45.190;5.722;2023-08-30T09:44:29;22.90;47.10
32173;DHT22;18679;45.190;5.722;2023-08-30T09:47:30;22.90;47.30
32173;DHT22;18679;45.190;5.722;2023-08-30T09:50:35;23.10;47.30
32173;DHT22;18679;45.190;5.722;2023-08-30T09:53:43;23.20;46.80
32173;DHT22;18679;45.190;5.722;2023-08-30T09:56:46;23.30;46.40
32173;DHT22;18679;45.190;5.722;2023-08-30T09:59:48;23.50;46.20
32173;DHT22;18679;45.190;5.722;2023-08-30T10:02:49;23.60;45.70
32173;DHT22;18679;45.190;5.722;2023-08-30T10:05:51;23.70;45.60
32173;DHT22;18679;45.190;5.722;2023-08-30T10:08:53;23.80;45.20
32173;DHT22;18679;45.190;5.722;2023-08-30T10:11:57;23.80;44.90
32173;DHT22;18679;45.190;5.722;2023-08-30T10:14:59;23.80;44.90
32173;DHT22;18679;45.190;5.722;2023-08-30T10:18:01;23.80;44.70
32173;DHT22;18679;45.190;5.722;2023-08-30T10:21:06;23.90;44.60
32173;DHT22;18679;45.190;5.722;2023-08-30T10:24:11;24.00;44.30
32173;DHT22;18679;45.190;5.722;2023-08-30T10:27:13;24.00;44.10
32173;DHT22;18679;45.190;5.722;2023-08-30T10:30:16;24.10;44.00
32173;DHT22;18679;45.190;5.722;2023-08-30T10:33:18;24.20;43.90
32173;DHT22;18679;45.190;5.722;2023-08-30T10:36:23;24.20;43.90
32173;DHT22;18679;45.190;5.722;2023-08-30T10:39:41;24.30;43.90
32173;DHT22;18679;45.190;5.722;2023-08-30T10:42:42;24.40;43.80
32173;DHT22;18679;45.190;5.722;2023-08-30T10:45:44;24.50;43.70
32173;DHT22;18679;45.190;5.722;2023-08-30T10:48:45;24.70;44.10
32173;DHT22;18679;45.190;5.722;2023-08-30T10:51:54;24.90;43.40
32173;DHT22;18679;45.190;5.722;2023-08-30T10:55:06;25.10;43.00
32173;DHT22;18679;45.190;5.722;2023-08-30T10:58:13;25.50;42.60
32173;DHT22;18679;45.190;5.722;2023-08-30T11:01:15;25.80;42.00
32173;DHT22;18679;45.190;5.722;2023-08-30T11:04:17;26.10;41.40
32173;DHT22;18679;45.190;5.722;2023-08-30T11:07:18;26.40;41.00
32173;DHT22;18679;45.190;5.722;2023-08-30T11:10:20;26.60;40.50
32173;DHT22;18679;45.190;5.722;2023-08-30T11:13:21;26.60;39.80
32173;DHT22;18679;45.190;5.722;2023-08-30T11:16:22;26.90;39.60
32173;DHT22;18679;45.190;5.722;2023-08-30T11:19:23;26.90;38.90
32173;DHT22;18679;45.190;5.722;2023-08-30T11:22:24;27.00;38.60
32173;DHT22;18679;45.190;5.722;2023-08-30T11:25:25;27.10;38.70
32173;DHT22;18679;45.190;5.722;2023-08-30T11:28:26;27.40;38.20
32173;DHT22;18679;45.190;5.722;2023-08-30T11:31:27;27.70;37.40
32173;DHT22;18679;45.190;5.722;2023-08-30T11:34:28;28.00;36.80
32173;DHT22;18679;45.190;5.722;2023-08-30T11:37:29;28.20;36.20
32173;DHT22;18679;45.190;5.722;2023-08-30T11:40:32;28.10;35.90
32173;DHT22;18679;45.190;5.722;2023-08-30T11:43:33;27.90;36.00
32173;DHT22;18679;45.190;5.722;2023-08-30T11:46:34;28.00;35.90
32173;DHT22;18679;45.190;5.722;2023-08-30T11:49:35;28.10;35.50
32173;DHT22;18679;45.190;5.722;2023-08-30T11:52:37;28.20;35.20
32173;DHT22;18679;45.190;5.722;2023-08-30T11:55:39;28.10;35.10
32173;DHT22;18679;45.190;5.722;2023-08-30T11:58:40;28.00;35.10
32173;DHT22;18679;45.190;5.722;2023-08-30T12:01:41;27.80;35.10
32173;DHT22;18679;45.190;5.722;2023-08-30T12:04:44;28.00;35.00
32173;DHT22;18679;45.190;5.722;2023-08-30T12:07:46;28.20;34.60
32173;DHT22;18679;45.190;5.722;2023-08-30T12:10:47;28.40;34.50
32173;DHT22;18679;45.190;5.722;2023-08-30T12:13:48;28.70;33.80
32173;DHT22;18679;45.190;5.722;2023-08-30T12:16:49;28.90;33.50
32173;DHT22;18679;45.190;5.722;2023-08-30T12:19:57;29.00;33.40
32173;DHT22;18679;45.190;5.722;2023-08-30T12:22:58;29.00;33.20
32173;DHT22;18679;45.190;5.722;2023-08-30T12:29:06;29.40;32.50
32173;DHT22;18679;45.190;5.722;2023-08-30T12:32:07;30.20;31.50
32173;DHT22;18679;45.190;5.722;2023-08-30T12:35:08;30.30;30.70
32173;DHT22;18679;45.190;5.722;2023-08-30T12:38:10;30.30;30.90
32173;DHT22;18679;45.190;5.722;2023-08-30T12:41:12;30.50;30.50
32173;DHT22;18679;45.190;5.722;2023-08-30T12:44:13;30.70;30.00
32173;DHT22;18679;45.190;5.722;2023-08-30T12:47:14;30.90;29.90
32173;DHT22;18679;45.190;5.722;2023-08-30T12:50:15;31.10;29.50
32173;DHT22;18679;45.190;5.722;2023-08-30T12:53:16;30.80;29.80
32173;DHT22;18679;45.190;5.722;2023-08-30T12:56:17;31.00;30.00
32173;DHT22;18679;45.190;5.722;2023-08-30T12:59:18;31.50;29.10
32173;DHT22;18679;45.190;5.722;2023-08-30T13:02:19;31.30;29.00
32173;DHT22;18679;45.190;5.722;2023-08-30T13:05:19;31.40;29.00
32173;DHT22;18679;45.190;5.722;2023-08-30T13:08:21;31.80;28.40
32173;DHT22;18679;45.190;5.722;2023-08-30T13:11:22;32.10;27.80
32173;DHT22;18679;45.190;5.722;2023-08-30T13:14:26;32.90;27.30
32173;DHT22;18679;45.190;5.722;2023-08-30T13:17:27;33.70;26.60
32173;DHT22;18679;45.190;5.722;2023-08-30T13:20:28;34.50;26.00
32173;DHT22;18679;45.190;5.722;2023-08-30T13:23:29;35.10;24.80
32173;DHT22;18679;45.190;5.722;2023-08-30T13:26:30;35.30;24.60
32173;DHT22;18679;45.190;5.722;2023-08-30T13:29:31;35.90;24.20
32173;DHT22;18679;45.190;5.722;2023-08-30T13:32:31;36.40;23.40
32173;DHT22;18679;45.190;5.722;2023-08-30T13:35:32;36.50;23.00
32173;DHT22;18679;45.190;5.722;2023-08-30T13:38:33;36.30;22.90
32173;DHT22;18679;45.190;5.722;2023-08-30T13:41:34;36.20;23.00
32173;DHT22;18679;45.190;5.722;2023-08-30T13:44:36;36.10;23.00
32173;DHT22;18679;45.190;5.722;2023-08-30T13:47:38;35.40;23.40
32173;DHT22;18679;45.190;5.722;2023-08-30T13:50:42;35.20;23.60
32173;DHT22;18679;45.190;5.722;2023-08-30T13:53:43;35.20;23.70
32173;DHT22;18679;45.190;5.722;2023-08-30T13:56:44;35.70;23.60
32173;DHT22;18679;45.190;5.722;2023-08-30T13:59:45;36.30;23.10
32173;DHT22;18679;45.190;5.722;2023-08-30T14:02:46;36.80;22.60
32173;DHT22;18679;45.190;5.722;2023-08-30T14:05:47;37.20;22.10
32173;DHT22;18679;45.190;5.722;2023-08-30T14:08:48;37.10;22.00
32173;DHT22;18679;45.190;5.722;2023-08-30T14:11:49;36.50;22.70
32173;DHT22;18679;45.190;5.722;2023-08-30T14:14:50;35.60;23.50
32173;DHT22;18679;45.190;5.722;2023-08-30T14:17:52;34.50;24.10
32173;DHT22;18679;45.190;5.722;2023-08-30T14:20:57;33.60;24.80
32173;DHT22;18679;45.190;5.722;2023-08-30T14:23:58;32.60;25.50
32173;DHT22;18679;45.190;5.722;2023-08-30T14:27:03;31.80;26.30
32173;DHT22;18679;45.190;5.722;2023-08-30T14:30:04;31.10;27.00
32173;DHT22;18679;45.190;5.722;2023-08-30T14:33:05;30.60;27.60
32173;DHT22;18679;45.190;5.722;2023-08-30T14:36:09;30.20;28.20
32173;DHT22;18679;45.190;5.722;2023-08-30T14:39:10;29.70;28.70
32173;DHT22;18679;45.190;5.722;2023-08-30T14:42:11;29.40;29.20
32173;DHT22;18679;45.190;5.722;2023-08-30T14:45:12;29.10;29.60
32173;DHT22;18679;45.190;5.722;2023-08-30T14:48:13;28.90;30.40
32173;DHT22;18679;45.190;5.722;2023-08-30T14:51:14;28.80;30.10
32173;DHT22;18679;45.190;5.722;2023-08-30T14:54:15;28.70;30.30
32173;DHT22;18679;45.190;5.722;2023-08-30T14:57:16;28.60;30.30
32173;DHT22;18679;45.190;5.722;2023-08-30T15:00:17;28.60;30.60
32173;DHT22;18679;45.190;5.722;2023-08-30T15:03:19;28.50;30.80
32173;DHT22;18679;45.190;5.722;2023-08-30T15:06:21;28.30;31.00
32173;DHT22;18679;45.190;5.722;2023-08-30T15:09:22;28.20;31.20
32173;DHT22;18679;45.190;5.722;2023-08-30T15:12:23;28.10;31.30
32173;DHT22;18679;45.190;5.722;2023-08-30T15:15:23;27.90;31.60
32173;DHT22;18679;45.190;5.722;2023-08-30T15:18:24;27.70;31.80
32173;DHT22;18679;45.190;5.722;2023-08-30T15:21:25;27.60;32.10
32173;DHT22;18679;45.190;5.722;2023-08-30T15:24:26;27.40;32.30
32173;DHT22;18679;45.190;5.722;2023-08-30T15:27:27;27.30;32.40
32173;DHT22;18679;45.190;5.722;2023-08-30T15:30:27;27.20;32.40
32173;DHT22;18679;45.190;5.722;2023-08-30T15:33:28;27.20;32.50
32173;DHT22;18679;45.190;5.722;2023-08-30T15:36:30;27.20;32.50
32173;DHT22;18679;45.190;5.722;2023-08-30T15:39:30;27.10;32.60
32173;DHT22;18679;45.190;5.722;2023-08-30T15:42:32;27.10;32.60
32173;DHT22;18679;45.190;5.722;2023-08-30T15:45:33;27.10;32.70
32173;DHT22;18679;45.190;5.722;2023-08-30T15:48:35;27.20;32.60
32173;DHT22;18679;45.190;5.722;2023-08-30T15:51:37;27.30;32.50
32173;DHT22;18679;45.190;5.722;2023-08-30T15:54:38;27.40;32.40
32173;DHT22;18679;45.190;5.722;2023-08-30T15:57:39;27.40;32.00
32173;DHT22;18679;45.190;5.722;2023-08-30T16:00:40;27.50;31.90
32173;DHT22;18679;45.190;5.722;2023-08-30T16:03:41;28.10;31.30
32173;DHT22;18679;45.190;5.722;2023-08-30T16:06:42;29.10;30.00
32173;DHT22;18679;45.190;5.722;2023-08-30T16:09:45;30.00;28.90
32173;DHT22;18679;45.190;5.722;2023-08-30T16:12:48;30.70;28.20
32173;DHT22;18679;45.190;5.722;2023-08-30T16:15:50;31.30;27.70
32173;DHT22;18679;45.190;5.722;2023-08-30T16:18:51;31.70;27.10
32173;DHT22;18679;45.190;5.722;2023-08-30T16:21:52;31.80;26.80
32173;DHT22;18679;45.190;5.722;2023-08-30T16:24:54;32.00;26.60
32173;DHT22;18679;45.190;5.722;2023-08-30T16:27:55;32.10;26.60
32173;DHT22;18679;45.190;5.722;2023-08-30T16:31:03;32.20;26.40
32173;DHT22;18679;45.190;5.722;2023-08-30T16:34:04;32.00;26.30
32173;DHT22;18679;45.190;5.722;2023-08-30T16:37:05;31.30;27.00
32173;DHT22;18679;45.190;5.722;2023-08-30T16:40:06;30.50;27.60
32173;DHT22;18679;45.190;5.722;2023-08-30T16:43:07;29.70;28.30
32173;DHT22;18679;45.190;5.722;2023-08-30T16:46:08;29.10;28.80
32173;DHT22;18679;45.190;5.722;2023-08-30T16:49:09;28.60;29.40
32173;DHT22;18679;45.190;5.722;2023-08-30T16:52:11;28.20;30.00
32173;DHT22;18679;45.190;5.722;2023-08-30T16:55:12;27.80;30.30
32173;DHT22;18679;45.190;5.722;2023-08-30T16:58:13;27.50;30.60
32173;DHT22;18679;45.190;5.722;2023-08-30T17:01:14;27.20;31.00
32173;DHT22;18679;45.190;5.722;2023-08-30T17:04:15;27.00;31.40
32173;DHT22;18679;45.190;5.722;2023-08-30T17:07:16;26.80;31.80
32173;DHT22;18679;45.190;5.722;2023-08-30T17:10:17;26.60;32.30
32173;DHT22;18679;45.190;5.722;2023-08-30T17:13:18;26.50;32.60
32173;DHT22;18679;45.190;5.722;2023-08-30T17:16:19;26.40;32.90
32173;DHT22;18679;45.190;5.722;2023-08-30T17:19:19;26.30;33.10
32173;DHT22;18679;45.190;5.722;2023-08-30T17:22:20;26.30;33.40
32173;DHT22;18679;45.190;5.722;2023-08-30T17:25:21;26.20;33.50
32173;DHT22;18679;45.190;5.722;2023-08-30T17:28:22;26.10;33.70
32173;DHT22;18679;45.190;5.722;2023-08-30T17:31:23;26.10;33.70
32173;DHT22;18679;45.190;5.722;2023-08-30T17:34:26;26.00;33.60
32173;DHT22;18679;45.190;5.722;2023-08-30T17:37:27;26.00;33.50
32173;DHT22;18679;45.190;5.722;2023-08-30T17:40:32;25.90;33.40
32173;DHT22;18679;45.190;5.722;2023-08-30T17:43:34;25.80;33.40
32173;DHT22;18679;45.190;5.722;2023-08-30T17:46:35;25.70;33.20
32173;DHT22;18679;45.190;5.722;2023-08-30T17:49:37;25.70;33.20
32173;DHT22;18679;45.190;5.722;2023-08-30T17:52:38;25.60;33.30
32173;DHT22;18679;45.190;5.722;2023-08-30T17:55:39;25.60;33.50
32173;DHT22;18679;45.190;5.722;2023-08-30T17:58:40;25.50;33.60
32173;DHT22;18679;45.190;5.722;2023-08-30T18:01:42;25.50;33.80
32173;DHT22;18679;45.190;5.722;2023-08-30T18:04:43;25.40;33.90
32173;DHT22;18679;45.190;5.722;2023-08-30T18:07:44;25.30;33.90
32173;DHT22;18679;45.190;5.722;2023-08-30T18:10:45;25.30;34.00
32173;DHT22;18679;45.190;5.722;2023-08-30T18:13:46;25.20;34.00
32173;DHT22;18679;45.190;5.722;2023-08-30T18:16:47;25.20;34.10
32173;DHT22;18679;45.190;5.722;2023-08-30T18:19:48;25.10;34.10
32173;DHT22;18679;45.190;5.722;2023-08-30T18:22:49;25.10;34.30
32173;DHT22;18679;45.190;5.722;2023-08-30T18:25:50;25.10;34.30
32173;DHT22;18679;45.190;5.722;2023-08-30T18:28:51;25.00;34.30
32173;DHT22;18679;45.190;5.722;2023-08-30T18:31:54;25.00;34.40
32173;DHT22;18679;45.190;5.722;2023-08-30T18:34:55;25.00;34.50
32173;DHT22;18679;45.190;5.722;2023-08-30T18:37:55;24.90;34.50
32173;DHT22;18679;45.190;5.722;2023-08-30T18:40:56;24.90;34.60
32173;DHT22;18679;45.190;5.722;2023-08-30T18:43:57;24.90;34.70
32173;DHT22;18679;45.190;5.722;2023-08-30T18:46:58;24.80;34.80
32173;DHT22;18679;45.190;5.722;2023-08-30T18:49:59;24.80;34.80
32173;DHT22;18679;45.190;5.722;2023-08-30T18:53:00;24.80;34.90
32173;DHT22;18679;45.190;5.722;2023-08-30T18:56:01;24.70;35.10
32173;DHT22;18679;45.190;5.722;2023-08-30T18:59:02;24.70;35.70
32173;DHT22;18679;45.190;5.722;2023-08-30T19:02:06;24.60;35.50
32173;DHT22;18679;45.190;5.722;2023-08-30T19:05:07;24.50;35.70
32173;DHT22;18679;45.190;5.722;2023-08-30T19:08:08;24.40;35.90
32173;DHT22;18679;45.190;5.722;2023-08-30T19:11:08;24.30;36.10
32173;DHT22;18679;45.190;5.722;2023-08-30T19:14:11;24.30;36.30
32173;DHT22;18679;45.190;5.722;2023-08-30T19:17:12;24.20;36.40